Time;durP1;ratioP1;P1;durP2;ratioP2;P2;SDS_P1;SDS_P2;PMS_P1;PMS_P2;Temp;Humidity;BMP_temperature;BMP_pressure;BME280_temperature;BME280_humidity;BME280_pressure;Samples;Min_cycle;Max_cycle;Signal;HPM_P1;HPM_P2
2024/03/05 00:00:59;;;;;;;56.50;29.67;;;;;;;;;;4935076;29;20416;-63
2024/03/05 00:03:25;;;;;;;51.60;26.63;;;11.20;99.90;;;;;;4934933;29;20178;-63
2024/03/05 00:05:50;;;;;;;50.53;26.50;;;11.30;99.90;;;;;;4935551;29;20508;-63
2024/03/05 00:08:16;;;;;;;55.00;27.63;;;11.30;99.90;;;;;;4934767;29;20555;-62
2024/03/05 00:10:42;;;;;;;50.20;27.97;;;11.40;99.90;;;;;;4935490;29;20191;-63
2024/03/05 00:13:08;;;;;;;50.73;28.33;;;11.30;99.90;;;;;;4933801;29;20212;-63
2024/03/05 00:15:34;;;;;;;45.60;25.60;;;11.40;99.90;;;;;;4937902;29;20453;-63
2024/03/05 00:18:00;;;;;;;55.57;27.23;;;11.40;99.90;;;;;;4920174;29;20196;-62
2024/03/05 00:20:25;;;;;;;51.40;26.43;;;11.40;99.90;;;;;;4954132;29;20443;-61
2024/03/05 00:22:51;;;;;;;51.43;27.20;;;11.50;99.90;;;;;;4954743;29;20620;-62
2024/03/05 00:25:17;;;;;;;52.60;28.90;;;;;;;;;;4945053;29;20331;-62
2024/03/05 00:27:48;;;;;;;50.20;27.80;;;11.40;99.90;;;;;;4935096;29;20295;-63
2024/03/05 00:30:14;;;;;;;47.97;27.40;;;11.30;99.90;;;;;;4934546;29;20904;-62
2024/03/05 00:32:40;;;;;;;45.83;25.47;;;11.40;99.90;;;;;;4935145;29;20411;-63
2024/03/05 00:35:07;;;;;;;43.67;25.17;;;11.50;99.90;;;;;;4934636;29;20448;-60
2024/03/05 00:37:35;;;;;;;55.50;26.27;;;11.30;99.90;;;;;;4935120;29;20756;-61
2024/03/05 00:40:04;;;;;;;44.80;25.53;;;11.40;99.90;;;;;;4927510;29;20436;-60
2024/03/05 00:42:30;;;;;;;47.33;24.97;;;11.40;99.90;;;;;;4935124;29;20470;-61
2024/03/05 00:44:56;;;;;;;49.47;25.30;;;11.30;99.90;;;;;;4934792;29;20413;-61
2024/03/05 00:47:21;;;;;;;51.73;27.77;;;11.30;99.90;;;;;;4949958;29;21022;-61
2024/03/05 00:49:47;;;;;;;53.40;25.40;;;11.10;99.90;;;;;;4927624;29;20196;-61
2024/03/05 00:52:13;;;;;;;48.03;24.73;;;11.20;99.90;;;;;;4934064;29;20263;-60
2024/03/05 00:54:39;;;;;;;56.93;29.50;;;11.20;99.90;;;;;;4934971;29;20180;-61
2024/03/05 00:57:05;;;;;;;55.90;27.13;;;11.00;99.90;;;;;;4933714;29;20904;-60
2024/03/05 00:59:31;;;;;;;55.70;26.40;;;11.20;99.90;;;;;;4934539;29;20438;-61
2024/03/05 01:01:57;;;;;;;57.63;27.00;;;;;;;;;;4934516;29;20907;-60
2024/03/05 01:04:25;;;;;;;52.97;27.30;;;11.10;99.90;;;;;;4934159;29;20187;-61
2024/03/05 01:06:51;;;;;;;50.97;26.83;;;11.20;99.90;;;;;;4936877;29;20518;-62
2024/03/05 01:09:19;;;;;;;56.40;27.87;;;11.20;99.90;;;;;;4945480;29;20515;-61
2024/03/05 01:11:45;;;;;;;52.97;28.03;;;11.20;99.90;;;;;;4934523;29;20421;-61
2024/03/05 01:14:10;;;;;;;50.43;27.73;;;11.20;99.90;;;;;;4933593;29;20410;-60
2024/03/05 01:16:37;;;;;;;62.50;29.30;;;11.20;99.90;;;;;;4934241;29;20421;-62
2024/03/05 01:19:04;;;;;;;52.10;26.67;;;;;;;;;;4934355;29;20182;-60
2024/03/05 01:21:30;;;;;;;55.00;28.07;;;11.20;99.90;;;;;;4934249;29;20405;-62
2024/03/05 01:23:58;;;;;;;53.90;28.53;;;11.30;99.90;;;;;;4935345;29;20459;-62
2024/03/05 01:26:24;;;;;;;53.57;29.60;;;11.20;99.90;;;;;;4937239;29;20484;-62
2024/03/05 01:28:50;;;;;;;60.37;30.57;;;11.20;99.90;;;;;;4938606;29;20499;-62
2024/03/05 01:31:15;;;;;;;57.60;30.53;;;10.80;99.90;;;;;;4937383;29;20192;-61
2024/03/05 01:33:43;;;;;;;63.83;31.53;;;10.80;99.90;;;;;;4938405;29;20181;-62
2024/03/05 01:36:10;;;;;;;56.77;29.23;;;10.80;99.90;;;;;;4935281;29;20730;-61
2024/03/05 01:38:37;;;;;;;62.57;29.53;;;10.90;99.90;;;;;;4957417;29;20420;-62
2024/03/05 01:41:02;;;;;;;62.20;32.00;;;10.90;99.90;;;;;;4937916;29;20415;-62
2024/03/05 01:43:28;;;;;;;61.30;31.90;;;10.90;99.90;;;;;;4937316;29;20934;-62
2024/03/05 01:45:55;;;;;;;56.40;28.67;;;10.90;99.90;;;;;;4929513;29;20186;-62
2024/03/05 01:48:21;;;;;;;56.33;29.60;;;10.50;99.90;;;;;;4923038;29;20210;-62
2024/03/05 01:50:47;;;;;;;53.00;27.20;;;10.90;99.90;;;;;;4937939;29;20428;-62
2024/03/05 01:53:15;;;;;;;57.60;30.40;;;11.00;99.90;;;;;;4937004;29;20170;-61
2024/03/05 01:55:41;;;;;;;53.23;27.60;;;11.00;99.90;;;;;;4930627;29;20187;-62
2024/03/05 01:58:09;;;;;;;51.23;26.27;;;11.10;99.90;;;;;;4937515;29;20427;-61
2024/03/05 02:00:37;;;;;;;59.53;29.47;;;11.00;99.90;;;;;;4937496;29;20417;-62
2024/03/05 02:03:04;;;;;;;56.50;28.23;;;11.00;99.90;;;;;;4937229;29;20418;-62
2024/03/05 02:05:32;;;;;;;55.87;28.50;;;11.00;99.90;;;;;;4937466;29;20476;-62
2024/03/05 02:07:58;;;;;;;60.60;29.73;;;11.00;99.90;;;;;;4942874;29;20526;-62
2024/03/05 02:10:24;;;;;;;53.70;28.63;;;11.10;99.90;;;;;;4938708;29;20416;-62
2024/03/05 02:12:50;;;;;;;66.73;29.37;;;;;;;;;;4937165;29;20419;-62
2024/03/05 02:15:18;;;;;;;54.50;28.10;;;11.30;99.90;;;;;;4936515;29;20423;-61
2024/03/05 02:17:44;;;;;;;55.60;27.50;;;11.10;99.90;;;;;;4937154;29;20479;-62
2024/03/05 02:20:13;;;;;;;54.30;28.57;;;11.10;99.90;;;;;;4936452;29;20421;-60
2024/03/05 02:22:39;;;;;;;51.30;27.17;;;11.10;99.90;;;;;;4937431;29;20178;-62
2024/03/05 02:25:05;;;;;;;56.00;27.50;;;11.10;99.90;;;;;;4937287;29;20907;-62
2024/03/05 02:27:35;;;;;;;56.43;30.27;;;11.00;99.90;;;;;;4936110;29;20516;-62
2024/03/05 02:30:02;;;;;;;61.90;31.23;;;11.10;99.90;;;;;;4936809;29;20566;-62
2024/03/05 02:32:29;;;;;;;61.70;31.03;;;11.50;99.90;;;;;;4936107;29;20429;-61
2024/03/05 02:34:55;;;;;;;62.07;30.77;;;11.20;99.90;;;;;;4936167;29;20634;-61
2024/03/05 02:37:24;;;;;;;57.40;30.87;;;11.10;99.90;;;;;;4945603;29;20439;-61
2024/03/05 02:39:50;;;;;;;58.77;31.53;;;11.00;99.90;;;;;;4936766;29;20185;-62
2024/03/05 02:42:15;;;;;;;64.60;30.27;;;10.80;99.90;;;;;;4936581;29;20900;-61
2024/03/05 02:44:41;;;;;;;58.17;30.43;;;10.80;99.90;;;;;;4937003;29;20173;-62
2024/03/05 02:47:10;;;;;;;57.67;29.30;;;10.60;99.90;;;;;;4936529;29;20205;-62
2024/03/05 02:49:36;;;;;;;60.63;32.20;;;10.50;99.90;;;;;;4936240;29;20216;-62
2024/03/05 02:52:03;;;;;;;61.13;29.97;;;10.50;99.90;;;;;;4936737;29;20427;-62
2024/03/05 02:54:29;;;;;;;61.60;30.90;;;10.50;99.90;;;;;;4935963;29;20672;-61
2024/03/05 02:56:55;;;;;;;68.53;31.73;;;10.40;99.90;;;;;;4919437;29;20430;-62
2024/03/05 02:59:20;;;;;;;62.47;31.33;;;10.50;99.90;;;;;;4932380;29;20222;-61
2024/03/05 03:01:46;;;;;;;64.33;31.33;;;10.60;99.90;;;;;;4936272;29;20185;-62
2024/03/05 03:04:13;;;;;;;63.07;29.83;;;10.60;99.90;;;;;;4936063;29;20253;-61
2024/03/05 03:06:39;;;;;;;69.53;31.30;;;10.70;99.90;;;;;;4932003;29;20468;-62
2024/03/05 03:09:07;;;;;;;59.47;28.60;;;10.70;99.90;;;;;;4930999;29;20512;-62
2024/03/05 03:11:34;;;;;;;53.60;27.40;;;10.80;99.90;;;;;;4935542;29;20426;-62
2024/03/05 03:14:00;;;;;;;58.43;31.00;;;10.80;99.90;;;;;;4936131;29;20433;-61
2024/03/05 03:16:26;;;;;;;54.93;28.30;;;10.90;99.90;;;;;;4935532;29;20426;-62
2024/03/05 03:18:52;;;;;;;54.77;27.30;;;10.90;99.90;;;;;;4936190;29;20416;-62
2024/03/05 03:21:18;;;;;;;56.00;28.30;;;10.90;99.90;;;;;;4929496;29;20455;-61
2024/03/05 03:23:44;;;;;;;52.07;27.07;;;10.90;99.90;;;;;;4936467;29;20195;-62
2024/03/05 03:26:11;;;;;;;61.83;28.20;;;11.00;99.90;;;;;;4936406;29;20548;-61
2024/03/05 03:28:37;;;;;;;47.67;26.63;;;11.00;99.90;;;;;;4935742;29;20967;-61
2024/03/05 03:31:05;;;;;;;49.40;24.57;;;11.00;99.90;;;;;;4935746;29;20889;-61
2024/03/05 03:33:31;;;;;;;55.23;29.17;;;11.10;99.90;;;;;;4935134;29;20421;-61
2024/03/05 03:35:57;;;;;;;52.30;26.30;;;11.00;99.90;;;;;;4939414;29;20928;-62
2024/03/05 03:38:23;;;;;;;54.10;28.50;;;11.00;99.90;;;;;;4940243;29;20446;-61
2024/03/05 03:40:49;;;;;;;56.60;26.90;;;11.00;99.90;;;;;;4935755;29;20896;-62
2024/03/05 03:43:15;;;;;;;51.13;27.83;;;11.00;99.90;;;;;;4934862;29;20185;-61
2024/03/05 03:45:41;;;;;;;48.73;27.43;;;11.00;99.90;;;;;;4935539;29;20461;-61
2024/03/05 03:48:07;;;;;;;50.73;26.50;;;11.00;99.90;;;;;;4935366;29;20496;-62
2024/03/05 03:50:33;;;;;;;59.30;27.57;;;10.90;99.90;;;;;;4947785;29;20820;-61
2024/03/05 03:52:59;;;;;;;49.50;27.20;;;10.90;99.90;;;;;;4935626;29;20418;-62
2024/03/05 03:55:26;;;;;;;61.77;29.70;;;10.90;99.90;;;;;;4934425;29;20250;-61
2024/03/05 03:57:53;;;;;;;56.57;28.83;;;10.90;99.90;;;;;;4935210;29;20187;-61
2024/03/05 04:00:19;;;;;;;47.37;27.33;;;10.90;99.90;;;;;;4934771;29;20507;-61
2024/03/05 04:02:46;;;;;;;51.60;27.27;;;10.90;99.90;;;;;;4935025;29;20582;-62
2024/03/05 04:05:12;;;;;;;52.53;27.40;;;10.90;99.90;;;;;;4935047;29;20456;-61
2024/03/05 04:07:38;;;;;;;62.50;30.00;;;10.90;99.90;;;;;;4946010;29;20476;-62
2024/03/05 04:10:07;;;;;;;54.47;27.87;;;10.90;99.90;;;;;;4941640;29;20242;-62
2024/03/05 04:12:36;;;;;;;60.87;28.83;;;10.90;99.90;;;;;;4934697;29;20414;-62
2024/03/05 04:15:03;;;;;;;51.80;25.73;;;10.90;99.90;;;;;;4935096;29;20450;-62
2024/03/05 04:17:29;;;;;;;46.40;25.97;;;11.00;99.90;;;;;;4934683;29;20436;-61
2024/03/05 04:19:55;;;;;;;54.20;26.43;;;11.00;99.90;;;;;;4935228;29;20489;-62
2024/03/05 04:22:22;;;;;;;51.30;25.47;;;11.00;99.90;;;;;;4934325;29;20427;-61
2024/03/05 04:24:55;;;;;;;52.67;27.87;;;11.00;99.90;;;;;;4927185;29;20418;-62
2024/03/05 04:27:26;;;;;;;44.43;24.90;;;11.00;99.90;;;;;;4934139;29;20479;-61
2024/03/05 04:29:56;;;;;;;43.60;23.50;;;10.90;99.90;;;;;;4927327;29;20809;-62
2024/03/05 04:32:26;;;;;;;55.80;25.20;;;10.90;99.90;;;;;;4929753;29;20491;-61
2024/03/05 04:35:01;;;;;;;57.00;27.47;;;10.90;99.90;;;;;;4936299;29;20441;-62
2024/03/05 04:37:29;;;;;;;50.90;25.50;;;10.90;99.90;;;;;;4942079;29;20434;-62
2024/03/05 04:39:54;;;;;;;44.97;22.13;;;10.90;99.90;;;;;;4934520;29;20421;-62
2024/03/05 04:42:22;;;;;;;46.70;24.50;;;10.90;99.90;;;;;;4934181;29;20423;-61
2024/03/05 04:44:48;;;;;;;41.47;22.13;;;10.90;99.90;;;;;;4934459;29;20189;-60
2024/03/05 04:47:14;;;;;;;40.33;23.07;;;10.80;99.90;;;;;;4934765;29;20497;-60
2024/03/05 04:49:39;;;;;;;39.43;20.00;;;10.80;99.90;;;;;;4963636;28;20469;-60
2024/03/05 04:52:05;;;;;;;39.77;20.37;;;10.80;99.90;;;;;;4934421;29;20186;-60
2024/03/05 04:54:31;;;;;;;40.23;20.60;;;10.80;99.90;;;;;;4933941;29;20527;-60
2024/03/05 04:56:57;;;;;;;41.20;20.33;;;10.90;99.90;;;;;;4935082;29;20180;-60
2024/03/05 04:59:23;;;;;;;43.67;21.93;;;10.80;99.90;;;;;;4935394;29;20184;-60
2024/03/05 05:01:49;;;;;;;37.90;20.97;;;10.80;99.90;;;;;;4938587;29;20234;-60
2024/03/05 05:04:14;;;;;;;34.50;20.47;;;10.80;99.90;;;;;;4949349;29;20417;-60
2024/03/05 05:06:40;;;;;;;37.37;20.13;;;10.80;99.90;;;;;;4937537;29;20752;-60
2024/03/05 05:09:07;;;;;;;36.93;19.30;;;10.80;99.90;;;;;;4949431;29;20178;-60
2024/03/05 05:11:33;;;;;;;36.77;21.20;;;10.80;99.90;;;;;;4948935;29;20500;-60
2024/03/05 05:13:59;;;;;;;40.70;21.50;;;10.80;99.90;;;;;;4938598;29;20425;-60
2024/03/05 05:16:26;;;;;;;39.00;21.27;;;10.80;99.90;;;;;;4937324;29;20899;-60
2024/03/05 05:18:52;;;;;;;39.50;21.37;;;11.40;99.90;;;;;;4938130;29;20212;-60
2024/03/05 05:21:18;;;;;;;38.67;19.77;;;10.80;99.90;;;;;;4937639;29;20437;-60
2024/03/05 05:23:44;;;;;;;41.37;20.30;;;10.80;99.90;;;;;;4937876;29;20407;-60
2024/03/05 05:26:12;;;;;;;48.63;20.00;;;10.80;99.90;;;;;;4938007;29;20178;-60
2024/03/05 05:28:40;;;;;;;42.20;21.70;;;10.80;99.90;;;;;;4937031;29;20420;-60
2024/03/05 05:31:08;;;;;;;42.47;20.67;;;10.80;99.90;;;;;;4937822;29;20438;-60
2024/03/05 05:33:33;;;;;;;43.70;20.60;;;10.80;99.90;;;;;;4937461;29;20642;-60
2024/03/05 05:35:59;;;;;;;41.77;22.27;;;10.80;99.90;;;;;;4937505;29;20980;-60
2024/03/05 05:38:25;;;;;;;43.13;20.43;;;10.80;99.90;;;;;;4945045;29;20186;-60
2024/03/05 05:40:50;;;;;;;41.20;20.83;;;10.80;99.90;;;;;;4942862;29;20246;-60
2024/03/05 05:43:16;;;;;;;45.20;22.17;;;10.80;99.90;;;;;;4940487;29;20230;-60
2024/03/05 05:45:42;;;;;;;40.43;21.50;;;10.80;99.90;;;;;;4937207;29;20566;-61
2024/03/05 05:48:23;;;;;;;39.47;22.10;;;10.90;99.90;;;;;;4937513;29;20211;-60
2024/03/05 05:50:58;;;;;;;44.13;23.03;;;10.90;99.90;;;;;;4944326;29;20186;-60
2024/03/05 05:53:24;;;;;;;41.67;23.10;;;10.90;99.90;;;;;;4936919;29;20488;-60
2024/03/05 05:55:49;;;;;;;43.83;23.43;;;10.90;99.90;;;;;;4938038;29;20459;-59
2024/03/05 05:58:15;;;;;;;40.80;23.47;;;11.00;99.90;;;;;;4932133;29;20429;-60
2024/03/05 06:00:41;;;;;;;46.53;23.00;;;11.00;99.90;;;;;;4936930;29;20499;-60
2024/03/05 06:03:08;;;;;;;46.07;24.27;;;11.00;99.90;;;;;;4937508;29;20248;-60
2024/03/05 06:05:36;;;;;;;39.47;21.30;;;11.00;99.90;;;;;;4935911;29;20442;-60
2024/03/05 06:08:03;;;;;;;39.27;21.53;;;11.00;99.90;;;;;;4937536;29;20512;-60
2024/03/05 06:10:30;;;;;;;39.60;21.57;;;11.00;99.90;;;;;;4936486;29;20445;-61
2024/03/05 06:12:56;;;;;;;44.90;23.03;;;11.00;99.90;;;;;;4937423;29;20425;-60
2024/03/05 06:15:23;;;;;;;44.00;22.80;;;11.00;99.90;;;;;;4932488;29;20904;-60
2024/03/05 06:17:51;;;;;;;48.70;23.60;;;11.00;99.90;;;;;;4936939;29;20444;-60
2024/03/05 06:20:17;;;;;;;38.63;22.43;;;11.00;99.90;;;;;;4937515;29;20418;-60
2024/03/05 06:22:45;;;;;;;46.80;22.90;;;11.10;99.90;;;;;;4936318;29;20460;-60
2024/03/05 06:25:13;;;;;;;46.90;25.20;;;11.10;99.90;;;;;;4936666;29;20856;-60
2024/03/05 06:27:40;;;;;;;49.50;24.40;;;11.00;99.90;;;;;;4941598;29;20527;-60
2024/03/05 06:30:17;;;;;;;51.03;27.60;;;11.10;99.90;;;;;;4937084;29;20417;-60
2024/03/05 06:32:48;;;;;;;45.70;24.63;;;11.10;99.90;;;;;;4937742;29;21153;-60
2024/03/05 06:35:14;;;;;;;45.17;25.13;;;11.00;99.90;;;;;;4956597;29;20786;-60
2024/03/05 06:37:43;;;;;;;45.70;23.87;;;11.10;99.90;;;;;;4947295;29;20419;-60
2024/03/05 06:40:11;;;;;;;51.27;25.90;;;11.10;99.90;;;;;;4937070;29;20421;-60
2024/03/05 06:42:51;;;;;;;48.93;24.23;;;11.00;99.90;;;;;;4934880;29;20466;-60
2024/03/05 06:45:24;;;;;;;49.10;24.57;;;11.10;99.90;;;;;;4937047;29;20411;-61
2024/03/05 06:47:57;;;;;;;41.23;24.77;;;11.10;99.90;;;;;;4936847;29;20458;-65
2024/03/05 06:50:36;;;;;;;40.17;23.23;;;11.10;99.90;;;;;;4936820;29;20448;-78
2024/03/05 06:58:37;;;;;;;50.47;25.03;;;11.10;99.90;;;;;;4935395;29;20788;-64
2024/03/05 07:01:07;;;;;;;51.27;27.17;;;11.20;99.90;;;;;;4936330;29;20422;-65
2024/03/05 07:03:37;;;;;;;47.33;24.37;;;11.20;99.90;;;;;;4934131;29;20426;-65
2024/03/05 07:06:07;;;;;;;45.50;24.37;;;11.20;99.90;;;;;;4936402;29;20423;-64
2024/03/05 07:08:40;;;;;;;45.00;22.20;;;11.20;99.90;;;;;;4935585;29;20475;-64
2024/03/05 07:11:09;;;;;;;44.77;23.20;;;11.20;99.90;;;;;;4935563;29;21001;-65
2024/03/05 07:13:40;;;;;;;43.10;23.40;;;11.20;99.90;;;;;;4935029;29;20444;-65
2024/03/05 07:16:09;;;;;;;45.60;22.37;;;11.30;99.90;;;;;;4936288;29;20791;-65
2024/03/05 07:18:37;;;;;;;37.13;20.73;;;11.20;99.90;;;;;;4935632;29;20429;-63
2024/03/05 07:21:04;;;;;;;40.37;20.83;;;11.20;99.90;;;;;;4936322;29;20812;-62
2024/03/05 07:23:30;;;;;;;37.27;20.93;;;;;;;;;;4934539;29;20421;-65
2024/03/05 07:25:56;;;;;;;40.93;22.30;;;11.20;99.90;;;;;;4950975;29;20411;-63
2024/03/05 07:28:22;;;;;;;41.63;23.63;;;11.20;99.90;;;;;;4918166;29;20490;-65
2024/03/05 07:30:48;;;;;;;41.50;23.50;;;11.20;99.90;;;;;;4936442;29;20986;-64
2024/03/05 07:33:13;;;;;;;45.83;23.33;;;11.30;99.90;;;;;;4937066;29;20219;-64
2024/03/05 07:35:42;;;;;;;38.40;20.43;;;11.30;99.90;;;;;;4937065;29;20585;-64
2024/03/05 07:38:08;;;;;;;43.10;24.23;;;11.30;99.90;;;;;;4955224;29;20191;-64
2024/03/05 07:40:34;;;;;;;44.43;22.27;;;11.30;99.90;;;;;;4941243;29;20427;-64
2024/03/05 07:43:04;;;;;;;40.03;20.23;;;11.30;99.90;;;;;;4950869;29;20442;-64
2024/03/05 07:45:30;;;;;;;47.83;22.63;;;11.40;99.90;;;;;;4950462;29;20436;-71
2024/03/05 07:47:57;;;;;;;45.80;23.90;;;11.40;99.90;;;;;;4918520;29;20463;-64
2024/03/05 07:50:23;;;;;;;39.80;22.67;;;11.40;99.90;;;;;;4935683;29;20520;-64
2024/03/05 07:52:53;;;;;;;41.87;23.30;;;11.40;99.90;;;;;;4935017;29;20425;-64
2024/03/05 07:55:23;;;;;;;46.20;23.47;;;11.40;99.90;;;;;;4935661;29;20445;-64
2024/03/05 07:57:49;;;;;;;45.37;24.20;;;11.40;99.90;;;;;;4943864;29;20539;-64
2024/03/05 08:00:17;;;;;;;48.40;24.97;;;11.50;99.90;;;;;;4927351;29;20447;-64
2024/03/05 08:02:45;;;;;;;45.30;23.10;;;11.40;99.90;;;;;;4917336;29;20424;-64
2024/03/05 08:05:13;;;;;;;41.47;21.57;;;11.40;99.90;;;;;;4935107;29;20441;-64
2024/03/05 08:07:39;;;;;;;42.17;22.40;;;11.40;99.90;;;;;;4934253;29;20459;-64
2024/03/05 08:10:07;;;;;;;38.30;22.10;;;11.40;99.90;;;;;;4935331;29;20435;-65
2024/03/05 08:12:37;;;;;;;47.47;24.27;;;11.50;99.90;;;;;;4934349;29;20424;-64
2024/03/05 08:15:06;;;;;;;43.63;23.43;;;11.40;99.90;;;;;;4935176;29;20526;-64
2024/03/05 08:17:35;;;;;;;45.90;23.53;;;11.40;99.90;;;;;;4931404;29;20419;-63
2024/03/05 08:20:03;;;;;;;44.90;23.70;;;11.50;99.90;;;;;;4935259;29;20837;-68
2024/03/05 08:22:29;;;;;;;40.77;22.80;;;11.50;99.90;;;;;;4930164;29;20423;-76
2024/03/05 08:24:55;;;;;;;47.73;23.03;;;11.50;99.90;;;;;;4939390;29;20417;-64
2024/03/05 08:27:21;;;;;;;42.53;21.90;;;11.60;99.90;;;;;;4915612;29;20472;-61
2024/03/05 08:29:49;;;;;;;42.40;24.30;;;11.60;99.90;;;;;;4945507;29;21056;-64
2024/03/05 08:32:18;;;;;;;47.03;23.00;;;11.60;99.90;;;;;;4920627;29;20433;-65
2024/03/05 08:34:45;;;;;;;46.50;23.37;;;11.70;99.90;;;;;;4944107;28;20452;-65
2024/03/05 08:37:11;;;;;;;38.53;21.60;;;11.80;99.90;;;;;;4934814;29;20432;-72
2024/03/05 08:39:39;;;;;;;40.10;18.63;;;11.90;99.90;;;;;;4933767;29;20410;-72
2024/03/05 08:42:05;;;;;;;34.40;22.10;;;12.30;99.90;;;;;;4917225;29;20531;-72
2024/03/05 08:44:31;;;;;;;35.13;20.07;;;12.80;99.90;;;;;;4934392;29;20824;-77
2024/03/05 08:46:57;;;;;;;36.30;20.40;;;13.20;99.90;;;;;;4933908;29;20464;-73
2024/03/05 08:49:25;;;;;;;37.67;21.93;;;13.60;99.90;;;;;;4933334;29;20420;-72
2024/03/05 08:51:53;;;;;;;43.93;26.30;;;14.20;99.90;;;;;;4933413;29;20800;-72
2024/03/05 08:54:18;;;;;;;41.10;21.83;;;14.60;99.90;;;;;;4933713;29;20434;-72
2024/03/05 08:56:44;;;;;;;37.77;22.63;;;14.60;99.90;;;;;;4931780;29;20439;-72
2024/03/05 08:59:10;;;;;;;35.80;22.10;;;14.60;99.90;;;;;;4942906;29;20195;-72
2024/03/05 09:01:36;;;;;;;33.87;22.30;;;14.80;99.90;;;;;;4930299;29;20256;-72
2024/03/05 09:04:09;;;;;;;36.50;22.87;;;15.10;99.90;;;;;;4933134;29;20268;-72
2024/03/05 09:06:36;;;;;;;37.57;22.57;;;15.10;99.90;;;;;;4916257;29;20177;-72
2024/03/05 09:09:02;;;;;;;36.50;20.77;;;15.30;99.90;;;;;;4934630;29;20769;-72
2024/03/05 09:11:28;;;;;;;32.37;20.90;;;15.50;99.90;;;;;;4934360;29;20510;-74
2024/03/05 09:13:54;;;;;;;47.50;24.27;;;15.50;99.90;;;;;;4933621;29;20467;-69
2024/03/05 09:16:19;;;;;;;38.43;22.53;;;15.60;99.90;;;;;;4933808;29;20180;-70
2024/03/05 09:18:46;;;;;;;35.00;22.73;;;15.70;99.90;;;;;;4945977;29;20434;-63
2024/03/05 09:21:13;;;;;;;36.83;23.20;;;15.70;99.90;;;;;;4940632;29;20260;-63
2024/03/05 09:23:41;;;;;;;36.57;20.67;;;15.70;99.90;;;;;;4947271;29;20928;-63
2024/03/05 09:26:07;;;;;;;32.30;22.03;;;15.50;99.90;;;;;;4934404;29;20418;-65
2024/03/05 09:28:37;;;;;;;36.93;21.50;;;15.30;99.90;;;;;;4933021;29;20556;-73
2024/03/05 09:31:03;;;;;;;37.07;23.80;;;15.20;99.90;;;;;;4934222;29;20185;-63
2024/03/05 09:33:30;;;;;;;36.83;22.30;;;15.00;99.90;;;;;;4934695;29;20444;-63
2024/03/05 09:35:58;;;;;;;37.70;24.63;;;14.80;99.90;;;;;;4934285;29;20420;-63
2024/03/05 09:38:24;;;;;;;40.10;21.60;;;14.60;99.90;;;;;;4935026;29;20428;-63
2024/03/05 09:40:54;;;;;;;35.03;22.97;;;14.50;99.90;;;;;;4934333;29;20417;-63
2024/03/05 09:43:23;;;;;;;35.40;20.50;;;14.40;99.90;;;;;;4934646;29;20452;-63
2024/03/05 09:45:51;;;;;;;36.67;22.63;;;14.30;99.90;;;;;;4928889;29;20420;-63
2024/03/05 09:48:18;;;;;;;41.63;22.83;;;14.20;99.90;;;;;;4952143;29;20477;-63
2024/03/05 09:50:47;;;;;;;34.27;21.23;;;14.20;99.90;;;;;;4957035;29;20502;-63
2024/03/05 09:53:14;;;;;;;39.90;24.30;;;14.10;99.90;;;;;;4955293;29;20483;-63
2024/03/05 09:55:40;;;;;;;36.20;22.40;;;14.10;99.90;;;;;;4956956;29;20497;-63
2024/03/05 09:58:10;;;;;;;38.03;24.07;;;14.10;99.90;;;;;;4955996;29;20537;-63
2024/03/05 10:00:37;;;;;;;36.83;24.10;;;14.00;99.90;;;;;;4939468;29;20419;-63
2024/03/05 10:03:04;;;;;;;38.37;23.50;;;14.00;99.90;;;;;;4957097;29;20885;-63
2024/03/05 10:05:30;;;;;;;41.97;23.73;;;14.00;99.90;;;;;;4957288;29;20414;-63
2024/03/05 10:07:56;;;;;;;35.73;23.17;;;14.00;99.90;;;;;;4939478;29;20465;-63
2024/03/05 10:10:22;;;;;;;40.17;22.33;;;13.90;99.90;;;;;;4956932;29;20433;-63
2024/03/05 10:12:50;;;;;;;39.70;21.97;;;13.90;99.90;;;;;;4954069;29;20438;-63
2024/03/05 10:15:19;;;;;;;35.87;21.17;;;13.90;99.90;;;;;;4956030;29;20440;-63
2024/03/05 10:17:50;;;;;;;38.93;22.60;;;13.90;99.90;;;;;;4956513;29;20431;-63
2024/03/05 10:20:26;;;;;;;39.80;21.23;;;13.80;99.90;;;;;;4957170;29;20883;-63
2024/03/05 10:22:53;;;;;;;33.47;21.80;;;13.80;99.90;;;;;;4956384;29;20420;-63
2024/03/05 10:25:20;;;;;;;36.27;22.17;;;13.70;99.90;;;;;;4957396;29;20418;-63
2024/03/05 10:27:47;;;;;;;35.80;20.97;;;13.70;99.90;;;;;;4956151;29;20492;-63
2024/03/05 10:30:23;;;;;;;45.93;25.33;;;13.70;99.90;;;;;;4956864;29;20417;-63
2024/03/05 10:32:54;;;;;;;38.20;22.17;;;13.60;99.90;;;;;;4956234;29;20426;-63
2024/03/05 10:35:21;;;;;;;34.57;21.73;;;13.60;99.90;;;;;;4956763;29;20425;-63
2024/03/05 10:38:05;;;;;;;37.90;22.53;;;13.50;99.90;;;;;;4950188;29;20441;-64
2024/03/05 10:40:32;;;;;;;33.00;20.43;;;13.50;99.90;;;;;;4918534;29;20414;-63
2024/03/05 10:43:07;;;;;;;34.87;22.83;;;13.50;99.90;;;;;;4917911;29;20517;-62
2024/03/05 10:45:34;;;;;;;35.97;21.10;;;13.40;99.90;;;;;;4918505;29;20421;-62
2024/03/05 10:48:01;;;;;;;32.70;20.13;;;13.40;99.90;;;;;;4918277;29;20466;-64
2024/03/05 10:50:28;;;;;;;31.10;21.93;;;13.40;99.90;;;;;;4918357;29;20412;-63
2024/03/05 10:52:55;;;;;;;33.13;19.27;;;13.30;99.90;;;;;;4901176;29;20426;-62
2024/03/05 10:55:23;;;;;;;31.00;19.40;;;13.30;99.90;;;;;;4918306;29;20410;-63
2024/03/05 11:00:57;;;;;;;31.47;19.27;;;13.30;99.90;;;;;;4889460;29;20438;-62
2024/03/05 11:03:38;;;;;;;30.07;19.97;;;13.20;99.90;;;;;;4885204;29;20541;-63
2024/03/05 11:06:06;;;;;;;29.67;18.73;;;13.20;99.90;;;;;;4900859;29;20498;-63
2024/03/05 11:08:35;;;;;;;30.57;19.03;;;13.10;99.90;;;;;;4954406;29;20793;-63
2024/03/05 11:11:05;;;;;;;35.20;20.03;;;13.10;99.90;;;;;;4955861;29;20417;-63
2024/03/05 11:13:33;;;;;;;34.87;20.57;;;13.00;99.90;;;;;;4955789;29;20922;-63
2024/03/05 11:16:03;;;;;;;40.07;22.90;;;12.90;99.90;;;;;;4955324;29;20535;-63
2024/03/05 11:18:34;;;;;;;40.40;21.07;;;12.90;99.90;;;;;;4955880;29;20471;-62
2024/03/05 11:21:14;;;;;;;33.73;18.87;;;12.90;99.90;;;;;;4953410;29;20938;-62
2024/03/05 11:23:52;;;;;;;33.23;19.37;;;12.80;99.90;;;;;;4935973;29;20444;-62
2024/03/05 11:26:28;;;;;;;33.80;21.77;;;12.80;99.90;;;;;;4956008;29;20400;-62
2024/03/05 11:29:11;;;;;;;39.23;22.13;;;12.70;99.90;;;;;;4945814;29;20577;-62
2024/03/05 11:31:38;;;;;;;35.80;21.60;;;12.80;99.90;;;;;;4955794;29;20483;-62
2024/03/05 11:34:11;;;;;;;38.23;23.30;;;12.70;99.90;;;;;;4955668;29;20427;-62
2024/03/05 11:36:37;;;;;;;40.67;23.17;;;12.70;99.90;;;;;;4955813;29;20402;-62
2024/03/05 11:39:03;;;;;;;34.37;21.40;;;12.50;99.90;;;;;;4955301;29;20448;-62
2024/03/05 11:41:36;;;;;;;37.37;21.23;;;12.70;99.90;;;;;;4952842;29;20440;-62
2024/03/05 11:44:02;;;;;;;37.23;20.70;;;12.60;99.90;;;;;;4954907;29;20176;-63
2024/03/05 11:46:43;;;;;;;32.83;20.40;;;12.60;99.90;;;;;;4955201;29;20840;-62
2024/03/05 11:49:09;;;;;;;37.07;23.60;;;12.60;99.90;;;;;;4955214;29;20927;-62
2024/03/05 11:51:35;;;;;;;36.73;20.70;;;12.70;99.90;;;;;;4955288;29;20417;-62
2024/03/05 11:54:01;;;;;;;36.90;21.33;;;12.70;99.90;;;;;;4954599;29;20821;-62
2024/03/05 11:56:27;;;;;;;34.60;20.10;;;12.70;99.90;;;;;;4952747;29;20491;-62
2024/03/05 11:58:54;;;;;;;35.77;20.50;;;12.70;99.90;;;;;;4954409;29;20456;-62
2024/03/05 12:01:23;;;;;;;37.50;23.70;;;12.70;99.90;;;;;;4955233;29;20175;-62
2024/03/05 12:04:06;;;;;;;31.17;19.83;;;12.60;99.90;;;;;;4943949;29;20471;-68
2024/03/05 12:06:35;;;;;;;35.50;20.53;;;12.60;99.90;;;;;;4954765;29;20408;-68
2024/03/05 12:09:21;;;;;;;36.97;20.33;;;12.60;99.90;;;;;;4936722;29;20412;-68
2024/03/05 12:12:16;;;;;;;28.77;18.07;;;12.80;99.90;;;;;;4922007;29;20816;-70
2024/03/05 12:14:51;;;;;;;34.17;20.80;;;13.00;99.90;;;;;;4925362;29;20522;-76
2024/03/05 12:17:18;;;;;;;37.40;21.37;;;13.20;99.90;;;;;;4934782;29;20468;-69
2024/03/05 12:19:44;;;;;;;33.37;21.47;;;13.40;99.90;;;;;;4934955;29;20472;-69
2024/03/05 12:22:10;;;;;;;42.00;22.53;;;13.70;99.90;;;;;;4938654;29;20528;-69
2024/03/05 12:24:36;;;;;;;42.13;22.90;;;14.10;99.90;;;;;;4937989;29;20505;-69
2024/03/05 12:27:04;;;;;;;40.13;23.87;;;14.00;99.90;;;;;;4934442;29;20199;-69
2024/03/05 12:29:36;;;;;;;35.50;22.57;;;14.20;99.90;;;;;;4934764;29;20981;-69
2024/03/05 12:32:08;;;;;;;34.57;21.80;;;14.30;99.90;;;;;;4917409;29;20543;-69
2024/03/05 12:34:35;;;;;;;43.60;23.90;;;14.20;99.90;;;;;;4934381;29;20429;-69
2024/03/05 12:37:01;;;;;;;38.20;23.53;;;14.20;99.90;;;;;;4934362;29;20426;-69
2024/03/05 12:39:28;;;;;;;37.40;23.50;;;14.20;99.90;;;;;;4934377;29;20450;-69